createdAt,value
2018-06-22T00:00:31.448Z,10.80
2018-06-22T00:05:26.050Z,10.80
2018-06-22T00:10:20.764Z,10.80
2018-06-22T00:15:15.576Z,10.80
2018-06-22T00:20:10.047Z,11.10
2018-06-22T00:25:04.968Z,11.30
2018-06-22T00:29:59.977Z,11.50
2018-06-22T00:34:54.580Z,11.50
2018-06-22T00:39:49.090Z,11.50
2018-06-22T00:44:43.737Z,11.40
2018-06-22T00:49:38.480Z,11.50
2018-06-22T00:59:27.165Z,11.80
2018-06-22T01:04:21.717Z,12.00
2018-06-22T01:09:16.310Z,12.00
2018-06-22T01:14:10.829Z,12.20
2018-06-22T01:19:05.759Z,12.30
2018-06-22T01:24:00.595Z,12.40
2018-06-22T01:29:02.227Z,12.40
2018-06-22T01:33:56.893Z,12.30
2018-06-22T01:38:51.743Z,12.10
2018-06-22T01:48:40.940Z,11.80
2018-06-22T01:53:35.658Z,11.80
2018-06-22T01:58:30.631Z,11.70
2018-06-22T02:03:26.072Z,11.90
2018-06-22T02:08:20.778Z,11.80
2018-06-22T02:13:15.532Z,11.60
2018-06-22T02:18:11.054Z,11.50
2018-06-22T02:23:06.270Z,11.30
2018-06-22T02:28:00.724Z,11.20
2018-06-22T02:32:55.339Z,11.20
2018-06-22T02:37:50.169Z,11.20
2018-06-22T02:42:44.736Z,11.40
2018-06-22T02:52:34.012Z,11.60
2018-06-22T02:57:29.867Z,11.70
2018-06-22T03:02:24.446Z,11.80
2018-06-22T03:07:19.215Z,11.70
2018-06-22T03:17:08.326Z,11.40
2018-06-22T03:26:58.402Z,11.00
2018-06-22T03:31:53.284Z,10.90
2018-06-22T03:36:47.955Z,10.90
2018-06-22T03:41:42.454Z,10.80
2018-06-22T03:46:37.037Z,10.80
2018-06-22T03:51:31.692Z,10.80
2018-06-22T03:56:26.180Z,10.80
2018-06-22T04:01:22.309Z,11.00
2018-06-22T04:06:17.076Z,11.30
2018-06-22T04:11:11.894Z,11.50
2018-06-22T04:16:06.460Z,11.70
2018-06-22T04:21:01.636Z,11.60
2018-06-22T04:25:56.342Z,11.60
2018-06-22T04:30:50.812Z,11.60
2018-06-22T04:35:45.343Z,11.70
2018-06-22T04:40:39.812Z,11.80
2018-06-22T04:45:34.394Z,12.00
2018-06-22T04:50:29.212Z,12.20
2018-06-22T04:55:23.667Z,12.50
2018-06-22T05:00:18.129Z,13.00
2018-06-22T05:05:12.601Z,13.60
2018-06-22T05:10:07.070Z,13.70
2018-06-22T05:15:01.554Z,13.80
2018-06-22T05:19:56.051Z,13.80
2018-06-22T05:24:50.553Z,13.90
2018-06-22T05:34:39.441Z,14.00
2018-06-22T05:39:33.964Z,14.00
2018-06-22T05:44:28.461Z,14.00
2018-06-22T05:49:22.949Z,14.10
2018-06-22T05:54:17.425Z,14.10
2018-06-22T06:04:06.272Z,14.20
2018-06-22T06:09:00.946Z,14.40
2018-06-22T06:18:51.752Z,15.10
2018-06-22T06:23:46.250Z,15.20
2018-06-22T06:28:40.954Z,15.20
2018-06-22T06:33:35.421Z,15.10
2018-06-22T06:43:24.130Z,15.20
2018-06-22T06:48:18.856Z,15.50
2018-06-22T06:53:14.035Z,15.90
2018-06-22T06:58:08.539Z,15.90
2018-06-22T07:03:03.329Z,16.00
2018-06-22T07:07:57.810Z,16.80
2018-06-22T07:12:52.304Z,17.00
2018-06-22T07:17:46.800Z,16.90
2018-06-22T07:22:41.992Z,16.50
2018-06-22T07:27:36.456Z,16.20
2018-06-22T07:32:30.946Z,16.00
2018-06-22T07:37:25.397Z,16.00
2018-06-22T07:42:20.362Z,16.50
2018-06-22T07:47:15.481Z,16.80
2018-06-22T07:52:10.117Z,17.10
2018-06-22T07:57:04.923Z,17.10
2018-06-22T08:01:59.602Z,17.20
2018-06-22T08:06:54.260Z,17.20
2018-06-22T08:11:48.733Z,17.10
2018-06-22T08:16:43.347Z,16.90
2018-06-22T08:21:37.832Z,16.80
2018-06-22T08:26:32.490Z,17.20
2018-06-22T08:31:27.355Z,17.70
2018-06-22T08:36:21.862Z,18.20
2018-06-22T08:41:16.397Z,19.50
2018-06-22T08:46:10.886Z,21.50
2018-06-22T08:51:05.364Z,22.20
2018-06-22T09:10:42.843Z,20.60
2018-06-22T09:15:37.303Z,19.90
2018-06-22T09:20:31.801Z,19.30
2018-06-22T09:25:26.437Z,18.80
2018-06-22T09:30:21.210Z,18.70
2018-06-22T09:45:05.229Z,18.80
2018-06-22T09:49:59.960Z,19.50
2018-06-22T09:54:54.487Z,20.00
2018-06-22T09:59:50.313Z,19.50
2018-06-22T10:04:44.885Z,19.00
2018-06-22T10:09:40.581Z,18.90
2018-06-22T10:14:35.902Z,18.90
2018-06-22T10:19:31.219Z,18.80
2018-06-22T10:24:26.226Z,18.50
2018-06-22T10:29:21.133Z,18.30
2018-06-22T10:34:16.306Z,18.10
2018-06-22T10:39:12.909Z,18.00
2018-06-22T10:44:08.531Z,18.00
2018-06-22T10:49:03.658Z,18.00
2018-06-22T10:53:58.645Z,18.10
2018-06-22T10:58:53.448Z,18.90
2018-06-22T11:03:48.070Z,19.60
2018-06-22T11:08:43.191Z,20.30
2018-06-22T11:18:32.638Z,20.60
2018-06-22T11:23:27.783Z,21.10
2018-06-22T11:28:22.579Z,21.60
2018-06-22T11:38:21.772Z,21.70
2018-06-22T11:43:22.775Z,22.20
2018-06-22T11:48:17.287Z,22.60
2018-06-22T11:53:12.459Z,22.10
2018-06-22T11:58:07.310Z,21.20
2018-06-22T12:07:56.419Z,19.40
2018-06-22T12:17:46.748Z,19.60
2018-06-22T12:22:42.084Z,20.30
2018-06-22T12:32:31.126Z,20.30
2018-06-22T12:37:25.952Z,19.80
2018-06-22T12:42:20.480Z,19.70
2018-06-22T12:47:15.205Z,20.20
2018-06-22T12:52:09.822Z,20.70
2018-06-22T12:57:04.461Z,20.90
2018-06-22T13:06:53.474Z,20.70
2018-06-22T13:11:49.167Z,20.20
2018-06-22T13:16:43.774Z,19.70
2018-06-22T13:21:54.537Z,19.10
2018-06-22T13:26:49.576Z,19.00
2018-06-22T13:31:44.861Z,18.80
2018-06-22T13:36:39.895Z,18.80
2018-06-22T13:41:37.007Z,19.00
2018-06-22T13:46:32.472Z,19.60
2018-06-22T13:51:30.274Z,19.90
2018-06-22T13:56:24.761Z,19.70
2018-06-22T14:01:19.559Z,19.80
2018-06-22T14:06:19.214Z,19.90
2018-06-22T14:11:13.664Z,19.70
2018-06-22T14:16:09.142Z,19.60
2018-06-22T14:21:03.935Z,19.60
2018-06-22T14:25:58.483Z,19.40
2018-06-22T14:30:53.059Z,20.00
2018-06-22T14:35:47.644Z,20.40
2018-06-22T14:45:36.332Z,19.90
2018-06-22T14:55:30.544Z,20.00
2018-06-22T15:00:30.140Z,19.70
2018-06-22T15:05:30.139Z,19.30
2018-06-22T15:10:25.305Z,19.30
2018-06-22T15:15:19.750Z,19.20
2018-06-22T15:20:14.395Z,19.00
2018-06-22T15:25:08.884Z,18.90
2018-06-22T15:30:04.031Z,18.80
2018-06-22T15:35:03.811Z,18.70
2018-06-22T15:40:03.584Z,18.60
2018-06-22T15:45:04.691Z,18.70
2018-06-22T15:50:04.729Z,19.10
2018-06-22T15:55:05.333Z,19.70
2018-06-22T15:59:59.992Z,19.90
2018-06-22T16:04:54.631Z,19.90
2018-06-22T16:09:54.499Z,20.20
2018-06-22T16:14:54.660Z,20.60
2018-06-22T16:19:54.511Z,20.90
2018-06-22T16:24:54.634Z,21.10
2018-06-22T16:29:49.414Z,21.00
2018-06-22T16:34:44.087Z,20.80
2018-06-22T16:39:39.147Z,20.70
2018-06-22T16:44:34.199Z,20.60
2018-06-22T16:49:29.377Z,20.70
2018-06-22T16:54:24.288Z,20.70
2018-06-22T16:59:18.981Z,20.80
2018-06-22T17:04:15.932Z,20.60
2018-06-22T17:14:15.895Z,20.40
2018-06-22T17:24:08.094Z,19.90
2018-06-22T17:29:02.566Z,19.80
2018-06-22T17:33:58.450Z,19.80
2018-06-22T17:38:53.034Z,19.50
2018-06-22T17:48:42.127Z,18.60
2018-06-22T17:53:38.139Z,18.30
2018-06-22T17:58:32.812Z,18.10
2018-06-22T18:03:35.693Z,17.90
2018-06-22T18:18:25.947Z,17.10
2018-06-22T18:23:20.462Z,16.80
2018-06-22T18:28:15.094Z,16.60
2018-06-22T18:33:09.876Z,16.40
2018-06-22T18:42:58.822Z,16.10
2018-06-22T18:47:53.458Z,15.90
2018-06-22T18:52:53.230Z,15.90
2018-06-22T18:57:53.642Z,16.00
2018-06-22T19:02:53.560Z,16.00
2018-06-22T19:07:48.198Z,15.90
2018-06-22T19:12:42.871Z,15.70
2018-06-22T19:17:37.418Z,15.50
2018-06-22T19:22:32.817Z,15.30
2018-06-22T19:27:29.164Z,15.10
2018-06-22T19:32:23.847Z,14.90
2018-06-22T19:37:18.644Z,14.80
2018-06-22T19:47:12.707Z,14.60
2018-06-22T19:52:12.479Z,14.50
2018-06-22T19:57:07.373Z,14.50
2018-06-22T20:02:01.885Z,14.50
2018-06-22T20:06:56.557Z,14.50
2018-06-22T20:11:51.090Z,14.40
2018-06-22T20:16:45.556Z,14.40
2018-06-22T20:21:40.336Z,14.40
2018-06-22T20:26:34.844Z,14.30
2018-06-22T20:31:35.282Z,14.30
2018-06-22T20:36:35.326Z,14.20
2018-06-22T20:41:35.520Z,14.30
2018-06-22T20:46:36.258Z,14.20
2018-06-22T20:51:38.759Z,14.00
2018-06-22T20:56:34.149Z,13.80
2018-06-22T21:01:29.548Z,13.60
2018-06-22T21:06:25.944Z,13.50
2018-06-22T21:11:24.117Z,13.50
2018-06-22T21:21:19.834Z,13.30
2018-06-22T21:26:14.987Z,13.20
2018-06-22T21:31:14.938Z,13.00
2018-06-22T21:36:14.910Z,12.80
2018-06-22T21:41:10.370Z,12.80
2018-06-22T21:46:06.391Z,12.60
2018-06-22T21:51:01.464Z,12.50
2018-06-22T22:00:53.252Z,12.30
2018-06-22T22:10:49.791Z,12.10
2018-06-22T22:15:45.134Z,12.10
2018-06-22T22:20:39.833Z,12.00
2018-06-22T22:25:38.512Z,11.90
2018-06-22T22:30:34.687Z,11.80
2018-06-22T22:35:30.904Z,11.80
2018-06-22T22:40:27.166Z,11.70
2018-06-22T22:45:22.028Z,11.70
2018-06-22T22:50:17.965Z,11.60
2018-06-22T22:55:13.358Z,11.50
2018-06-22T23:00:09.388Z,11.50
2018-06-22T23:05:04.912Z,11.40
2018-06-22T23:10:00.512Z,11.40
2018-06-22T23:14:55.789Z,11.30
2018-06-22T23:24:46.162Z,11.30
2018-06-22T23:29:41.017Z,11.20
2018-06-22T23:34:35.928Z,11.10
2018-06-22T23:39:31.284Z,11.00
2018-06-22T23:44:27.676Z,10.90
2018-06-22T23:49:22.522Z,10.80
2018-06-22T23:54:17.690Z,10.70
2018-06-22T23:59:14.319Z,10.70
